Time;durP1;ratioP1;P1;durP2;ratioP2;P2;SDS_P1;SDS_P2;PMS_P1;PMS_P2;Temp;Humidity;BMP_temperature;BMP_pressure;BME280_temperature;BME280_humidity;BME280_pressure;Samples;Min_cycle;Max_cycle;Signal;HPM_P1;HPM_P2
2021/10/05 00:01:48;;;;;;;22.20;15.20;;;;;;;7.09;74.38;100990.73;116846;1198;23071;-60
2021/10/05 00:04:16;;;;;;;26.70;16.00;;;;;;;7.06;74.43;100992.82;116755;1199;138016;-60
2021/10/05 00:06:44;;;;;;;28.70;17.40;;;;;;;7.02;74.42;100992.76;116828;1199;22348;-59
2021/10/05 00:09:12;;;;;;;31.50;17.30;;;;;;;6.98;74.67;100995.02;116850;1199;22312;-60
2021/10/05 00:11:40;;;;;;;25.50;17.50;;;;;;;6.95;74.81;100994.16;116760;1199;137829;-60
2021/10/05 00:14:09;;;;;;;25.70;17.30;;;;;;;6.93;74.87;100986.47;116855;1198;22309;-60
2021/10/05 00:16:37;;;;;;;25.00;17.80;;;;;;;6.91;75.15;100987.18;114048;1198;138182;-60
2021/10/05 00:19:05;;;;;;;27.20;17.80;;;;;;;6.87;75.05;100981.69;116769;1199;23180;-60
2021/10/05 00:21:33;;;;;;;27.30;17.40;;;;;;;6.85;75.25;100987.92;116823;1199;22320;-60
2021/10/05 00:24:01;;;;;;;29.80;18.00;;;;;;;6.82;75.54;100987.80;116813;1199;137747;-60
2021/10/05 00:26:29;;;;;;;29.20;17.10;;;;;;;6.79;75.42;100986.16;116880;1184;23152;-60
2021/10/05 00:28:57;;;;;;;27.20;17.50;;;;;;;6.77;75.83;100989.33;116761;1198;138629;-59
2021/10/05 00:31:25;;;;;;;27.70;18.10;;;;;;;6.72;75.95;100989.37;116855;1199;22351;-60
2021/10/05 00:33:54;;;;;;;33.60;18.40;;;;;;;6.69;75.85;100993.34;116737;1198;139163;-60
2021/10/05 00:36:22;;;;;;;26.60;18.80;;;;;;;6.67;76.19;100988.37;116678;1199;22957;-59
2021/10/05 00:38:50;;;;;;;25.80;17.90;;;;;;;6.64;76.34;100996.44;116779;1198;22257;-59
2021/10/05 00:41:18;;;;;;;28.70;18.90;;;;;;;6.61;76.23;100994.42;116772;1198;137810;-59
2021/10/05 00:43:46;;;;;;;33.90;19.60;;;;;;;6.58;76.33;100997.52;116815;1199;22397;-59
2021/10/05 00:46:15;;;;;;;33.10;19.20;;;;;;;6.56;76.65;100999.04;116791;1192;137992;-60
2021/10/05 00:48:43;;;;;;;31.30;19.40;;;;;;;6.53;76.58;101001.12;116910;1199;22448;-60
2021/10/05 00:51:11;;;;;;;31.60;20.30;;;;;;;6.51;77.06;101002.10;116866;1199;22473;-60
2021/10/05 00:53:39;;;;;;;27.70;17.80;;;;;;;6.49;76.76;101001.45;116762;1199;138529;-60
2021/10/05 00:56:07;;;;;;;31.70;20.30;;;;;;;6.48;77.09;101003.31;116849;1199;22402;-60
2021/10/05 00:58:35;;;;;;;28.10;18.60;;;;;;;6.47;77.01;100999.55;116759;1199;138763;-60
2021/10/05 01:01:03;;;;;;;29.80;19.00;;;;;;;6.46;77.16;101000.71;116666;1199;22341;-59
2021/10/05 01:03:32;;;;;;;33.60;19.90;;;;;;;6.45;77.17;101005.77;116834;1199;22434;-60
2021/10/05 01:06:00;;;;;;;30.70;18.70;;;;;;;6.42;77.54;101009.73;116775;1199;137998;-60
2021/10/05 01:08:30;;;;;;;28.90;18.00;;;;;;;6.39;77.64;101006.88;116854;1198;22233;-60
2021/10/05 01:10:59;;;;;;;26.40;17.20;;;;;;;6.36;77.71;101008.64;116757;1199;138871;-59
2021/10/05 01:13:27;;;;;;;25.90;17.20;;;;;;;6.33;77.93;101008.80;116825;1199;22232;-60
2021/10/05 01:15:55;;;;;;;26.30;18.50;;;;;;;6.32;77.97;101008.08;116692;1199;138049;-60
2021/10/05 01:18:24;;;;;;;29.90;17.70;;;;;;;6.31;78.10;101010.20;116836;1199;22283;-60
2021/10/05 01:21:00;;;;;;;29.10;18.40;;;;;;;6.30;78.19;101009.93;116830;1199;22360;-60
2021/10/05 01:23:28;;;;;;;23.30;16.50;;;;;;;6.29;78.44;101008.42;116741;1199;137922;-60
2021/10/05 01:25:56;;;;;;;32.70;18.00;;;;;;;6.26;78.39;101010.98;116826;1199;23067;-60
2021/10/05 01:28:24;;;;;;;24.40;16.60;;;;;;;6.25;78.40;101016.87;116709;1198;137884;-60
2021/10/05 01:30:53;;;;;;;25.30;16.50;;;;;;;6.24;78.60;101021.05;116834;1192;23622;-60
2021/10/05 01:33:23;;;;;;;35.70;18.20;;;;;;;6.22;78.50;101020.58;116840;1199;22355;-60
2021/10/05 01:35:52;;;;;;;30.70;17.30;;;;;;;6.19;78.88;101024.57;116709;1199;138924;-60
2021/10/05 01:38:21;;;;;;;27.60;17.60;;;;;;;6.15;78.87;101019.85;116890;1198;22587;-60
2021/10/05 01:40:49;;;;;;;31.40;17.60;;;;;;;6.14;78.84;101026.84;116754;1199;137976;-60
2021/10/05 01:43:17;;;;;;;23.60;15.60;;;;;;;6.10;79.27;101020.88;116689;1192;22969;-60
2021/10/05 01:45:45;;;;;;;26.00;17.70;;;;;;;6.08;79.13;101023.84;116796;1199;22449;-60
2021/10/05 01:50:14;;;;;;;25.80;17.20;;;;;;;6.05;79.41;101020.67;110875;1216;544914;-59
2021/10/05 01:52:42;;;;;;;30.30;18.20;;;;;;;6.01;79.51;101022.48;112121;1199;137607;-59
2021/10/05 01:55:10;;;;;;;27.20;17.40;;;;;;;5.98;79.48;101024.22;112188;1202;23275;-54
2021/10/05 01:57:39;;;;;;;30.60;17.80;;;;;;;5.94;79.86;101025.87;116502;1202;23504;-59
2021/10/05 02:00:07;;;;;;;33.60;19.30;;;;;;;5.91;79.67;101026.83;116543;1200;137259;-59
2021/10/05 02:02:35;;;;;;;26.50;17.50;;;;;;;5.87;80.08;101028.70;116623;1201;23142;-60
2021/10/05 02:05:05;;;;;;;25.30;16.80;;;;;;;5.85;80.22;101034.02;116581;1200;137433;-60
2021/10/05 02:07:34;;;;;;;28.60;17.90;;;;;;;5.83;80.27;101036.64;116698;1200;22509;-59
2021/10/05 02:10:07;;;;;;;25.70;17.10;;;;;;;5.80;80.30;101038.02;116529;1193;138125;-60
2021/10/05 02:12:35;;;;;;;28.40;16.90;;;;;;;5.79;80.27;101041.39;116641;1199;22251;-59
2021/10/05 02:15:04;;;;;;;27.80;17.00;;;;;;;5.77;80.86;101042.27;116679;1200;22353;-60
2021/10/05 02:17:32;;;;;;;26.60;17.80;;;;;;;5.75;80.47;101045.59;116556;1200;138290;-60
2021/10/05 02:20:01;;;;;;;23.80;16.80;;;;;;;5.73;80.79;101049.64;116648;1200;22391;-60
2021/10/05 02:22:34;;;;;;;30.30;17.80;;;;;;;5.71;80.87;101050.73;116566;1200;141831;-60
2021/10/05 02:25:03;;;;;;;35.60;19.10;;;;;;;5.70;80.93;101053.01;116681;1200;22320;-59
2021/10/05 02:27:34;;;;;;;27.80;16.60;;;;;;;5.68;81.05;101056.14;116671;1200;23083;-60
2021/10/05 02:30:04;;;;;;;28.00;19.00;;;;;;;5.67;80.81;101055.84;116581;1200;137604;-60
2021/10/05 02:32:32;;;;;;;27.70;18.40;;;;;;;5.65;81.11;101062.92;116638;1200;22340;-60
2021/10/05 02:35:00;;;;;;;32.80;18.50;;;;;;;5.64;81.30;101062.95;116392;1201;137816;-60
2021/10/05 02:37:31;;;;;;;27.60;19.10;;;;;;;5.63;81.10;101064.27;116671;1200;22930;-60
2021/10/05 02:40:00;;;;;;;25.70;18.40;;;;;;;5.63;81.24;101062.52;116528;1201;137777;-60
2021/10/05 02:42:28;;;;;;;30.80;18.50;;;;;;;5.63;81.32;101059.86;116619;1201;22236;-60
2021/10/05 02:44:56;;;;;;;27.70;19.20;;;;;;;5.62;81.50;101063.56;116672;1201;22423;-60
2021/10/05 02:47:25;;;;;;;25.60;17.90;;;;;;;5.60;81.33;101063.59;116580;1200;137746;-60
2021/10/05 02:49:53;;;;;;;28.90;20.10;;;;;;;5.59;81.51;101068.84;116636;1200;23113;-60
2021/10/05 02:52:22;;;;;;;32.50;19.00;;;;;;;5.59;81.58;101068.64;116555;1201;137838;-60
2021/10/05 02:54:50;;;;;;;28.70;19.40;;;;;;;5.60;81.65;101076.05;116640;1200;23144;-60
2021/10/05 02:57:19;;;;;;;27.90;19.00;;;;;;;5.61;81.53;101075.98;116639;1201;22248;-60
2021/10/05 02:59:47;;;;;;;32.10;19.50;;;;;;;5.60;81.85;101073.73;116446;1201;138363;-60
2021/10/05 03:02:15;;;;;;;38.60;19.60;;;;;;;5.58;81.74;101077.02;116630;1201;22675;-60
2021/10/05 03:04:43;;;;;;;30.10;18.20;;;;;;;5.59;81.57;101077.42;116495;1201;138347;-60
2021/10/05 03:07:12;;;;;;;31.80;19.10;;;;;;;5.59;81.82;101075.50;116605;1201;22339;-60
2021/10/05 03:09:41;;;;;;;31.80;19.20;;;;;;;5.58;81.78;101075.61;116652;1201;22290;-60
2021/10/05 03:12:09;;;;;;;29.60;19.20;;;;;;;5.57;81.91;101076.05;116513;1200;137835;-60
2021/10/05 03:14:37;;;;;;;31.60;19.10;;;;;;;5.55;81.91;101075.57;116585;1202;22235;-60
2021/10/05 03:17:05;;;;;;;27.90;17.60;;;;;;;5.52;81.99;101071.07;116481;1200;137899;-60
2021/10/05 03:19:33;;;;;;;30.50;18.60;;;;;;;5.50;82.14;101071.57;116732;1200;22314;-60
2021/10/05 03:22:01;;;;;;;28.00;18.40;;;;;;;5.47;82.04;101073.16;116559;1200;138013;-60
2021/10/05 03:24:30;;;;;;;29.00;18.10;;;;;;;5.47;82.28;101072.47;116686;1199;22833;-60
2021/10/05 03:26:58;;;;;;;31.00;18.40;;;;;;;5.46;82.21;101075.96;116674;1200;23469;-60
2021/10/05 03:29:26;;;;;;;26.30;17.30;;;;;;;5.47;82.36;101077.54;116528;1199;140533;-60
2021/10/05 03:31:54;;;;;;;28.30;17.90;;;;;;;5.46;82.31;101075.83;116681;1200;22340;-60
2021/10/05 03:34:22;;;;;;;29.50;16.40;;;;;;;5.47;82.74;101078.55;116503;1193;138473;-60
2021/10/05 03:36:50;;;;;;;29.30;18.30;;;;;;;5.46;82.85;101081.18;113656;1201;25201;-59
2021/10/05 03:39:19;;;;;;;28.90;16.80;;;;;;;5.48;82.58;101078.05;116520;1197;23350;-59
2021/10/05 03:41:53;;;;;;;25.90;16.70;;;;;;;5.49;82.73;101082.70;116556;1200;138526;-58
2021/10/05 03:44:25;;;;;;;26.80;16.80;;;;;;;5.50;82.71;101084.17;116603;1200;22945;-59
2021/10/05 03:46:53;;;;;;;27.20;16.90;;;;;;;5.50;82.84;101084.64;116523;1201;138362;-58
2021/10/05 03:49:22;;;;;;;29.20;18.30;;;;;;;5.51;82.93;101087.14;116644;1200;22333;-59
2021/10/05 03:51:50;;;;;;;30.50;17.40;;;;;;;5.52;82.69;101087.45;116634;1199;22958;-58
2021/10/05 03:54:18;;;;;;;26.90;17.90;;;;;;;5.53;82.59;101088.33;116515;1200;138863;-58
2021/10/05 03:56:46;;;;;;;27.50;17.00;;;;;;;5.52;82.62;101088.61;116628;1200;24392;-58
2021/10/05 03:59:17;;;;;;;24.60;16.60;;;;;;;5.51;82.50;101089.64;116518;1200;138029;-59
2021/10/05 04:01:45;;;;;;;26.70;16.70;;;;;;;5.50;82.81;101088.58;116589;1200;22223;-59
2021/10/05 04:04:13;;;;;;;28.00;16.60;;;;;;;5.51;82.73;101089.19;116581;1201;138817;-59
2021/10/05 04:06:41;;;;;;;31.90;18.00;;;;;;;5.53;82.84;101087.77;113906;1200;23814;-59
2021/10/05 04:09:09;;;;;;;29.90;17.50;;;;;;;5.51;82.40;101086.73;112434;1199;25046;-59
2021/10/05 04:11:37;;;;;;;24.30;16.70;;;;;;;5.50;82.80;101083.56;116362;1201;138912;-59
2021/10/05 04:14:05;;;;;;;29.90;16.30;;;;;;;5.51;82.91;101085.61;116663;1200;22344;-59
2021/10/05 04:16:33;;;;;;;31.70;17.90;;;;;;;5.50;83.06;101085.64;116549;1200;139074;-59
2021/10/05 04:19:03;;;;;;;26.90;17.40;;;;;;;5.50;82.81;101087.38;116636;1200;22326;-59
2021/10/05 04:21:32;;;;;;;30.20;18.40;;;;;;;5.50;83.13;101094.36;116595;1200;23456;-59
2021/10/05 04:24:00;;;;;;;28.50;17.40;;;;;;;5.50;83.33;101097.65;116553;1200;137445;-59
2021/10/05 04:26:30;;;;;;;31.60;17.30;;;;;;;5.51;83.11;101103.31;116619;1200;22442;-59
2021/10/05 04:28:58;;;;;;;27.80;16.70;;;;;;;5.53;83.04;101104.89;116537;1200;137643;-59
2021/10/05 04:31:26;;;;;;;28.90;17.20;;;;;;;5.55;83.06;101107.88;116673;1199;22834;-59
2021/10/05 04:33:54;;;;;;;23.30;16.50;;;;;;;5.56;82.92;101108.95;116569;1200;138084;-59
2021/10/05 04:36:22;;;;;;;25.80;16.60;;;;;;;5.57;83.17;101110.63;116694;1200;22357;-59
2021/10/05 04:38:50;;;;;;;27.10;16.20;;;;;;;5.59;83.22;101113.45;116667;1201;22919;-59
2021/10/05 04:41:18;;;;;;;30.30;16.70;;;;;;;5.61;82.58;101114.17;116495;1193;138957;-59
2021/10/05 04:43:46;;;;;;;32.10;17.70;;;;;;;5.62;82.98;101111.70;116632;1200;22324;-59
2021/10/05 04:46:14;;;;;;;31.00;17.60;;;;;;;5.65;82.87;101115.09;116533;1200;138488;-59
2021/10/05 04:48:43;;;;;;;26.50;15.90;;;;;;;5.66;82.97;101117.98;116630;1201;22218;-59
2021/10/05 04:51:11;;;;;;;26.20;17.20;;;;;;;5.69;82.75;101117.67;116711;1200;22216;-59
2021/10/05 04:53:39;;;;;;;26.40;17.30;;;;;;;5.70;82.64;101122.77;116575;1200;138148;-59
2021/10/05 04:56:07;;;;;;;25.10;15.10;;;;;;;5.71;82.65;101122.53;116627;1193;23266;-59
2021/10/05 04:58:35;;;;;;;24.90;16.40;;;;;;;5.74;82.57;101130.74;116448;1200;139487;-59
2021/10/05 05:01:03;;;;;;;25.90;16.50;;;;;;;5.78;82.53;101132.07;116650;1187;22420;-59
2021/10/05 05:03:33;;;;;;;29.10;17.30;;;;;;;5.82;82.49;101134.99;116545;1201;22321;-59
2021/10/05 05:06:01;;;;;;;31.70;18.00;;;;;;;5.85;82.57;101139.70;116439;1201;137836;-59
2021/10/05 05:08:29;;;;;;;29.30;18.50;;;;;;;5.90;82.46;101145.61;116623;1201;22262;-59
2021/10/05 05:10:57;;;;;;;29.10;17.50;;;;;;;5.92;82.13;101144.20;116590;1199;138859;-59
2021/10/05 05:13:28;;;;;;;29.40;18.00;;;;;;;5.93;82.11;101147.00;116616;1201;23559;-59
2021/10/05 05:16:01;;;;;;;27.00;18.00;;;;;;;5.96;81.80;101145.78;116523;1200;139246;-59
2021/10/05 05:18:29;;;;;;;34.70;21.90;;;;;;;5.99;81.76;101146.75;116609;1200;22332;-59
2021/10/05 05:20:57;;;;;;;50.20;30.30;;;;;;;6.03;81.80;101148.73;116646;1200;22347;-59
2021/10/05 05:23:25;;;;;;;33.80;21.10;;;;;;;6.08;81.74;101147.69;116542;1201;137899;-59
2021/10/05 05:25:53;;;;;;;29.90;18.80;;;;;;;6.15;81.73;101149.54;116613;1199;22439;-59
2021/10/05 05:28:22;;;;;;;29.00;16.80;;;;;;;6.20;81.65;101153.05;116428;1200;138089;-59
2021/10/05 05:30:50;;;;;;;29.30;17.70;;;;;;;6.25;81.32;101155.89;116570;1199;22242;-60
2021/10/05 05:33:18;;;;;;;29.30;18.30;;;;;;;6.30;81.04;101162.88;116597;1193;22320;-60
2021/10/05 05:35:47;;;;;;;28.50;18.00;;;;;;;6.32;80.83;101166.37;116526;1200;138046;-60
2021/10/05 05:38:16;;;;;;;31.40;18.40;;;;;;;6.35;80.81;101168.48;116604;1201;23253;-61
2021/10/05 05:40:44;;;;;;;30.60;18.50;;;;;;;6.43;80.68;101172.65;116589;1200;138095;-59
2021/10/05 05:43:12;;;;;;;31.70;17.90;;;;;;;6.47;80.48;101171.00;116618;1200;22256;-59
2021/10/05 05:45:41;;;;;;;33.20;18.20;;;;;;;6.50;80.26;101173.10;116624;1200;22389;-59
2021/10/05 05:48:09;;;;;;;29.90;17.30;;;;;;;6.54;80.22;101176.46;116535;1199;137827;-60
2021/10/05 05:50:38;;;;;;;29.50;17.00;;;;;;;6.57;79.93;101177.52;116646;1200;22384;-59
2021/10/05 05:53:06;;;;;;;28.80;18.10;;;;;;;6.63;80.06;101178.20;116547;1199;139414;-59
2021/10/05 05:55:34;;;;;;;30.60;18.10;;;;;;;6.70;79.81;101183.20;116674;1199;23103;-61
2021/10/05 05:58:10;;;;;;;26.10;16.60;;;;;;;6.75;79.34;101185.52;116573;1200;138199;-61
2021/10/05 06:00:38;;;;;;;29.00;17.70;;;;;;;6.80;79.35;101179.88;116644;1199;22358;-61
2021/10/05 06:03:06;;;;;;;26.30;17.90;;;;;;;6.85;79.06;101181.36;116664;1199;23277;-61
2021/10/05 06:05:35;;;;;;;32.80;17.90;;;;;;;6.89;79.05;101181.73;116467;1199;139065;-60
2021/10/05 06:08:04;;;;;;;28.10;17.10;;;;;;;6.94;78.91;101185.58;116646;1200;22291;-61
2021/10/05 06:10:32;;;;;;;26.20;17.60;;;;;;;6.99;78.58;101185.24;116468;1193;138353;-60
2021/10/05 06:13:01;;;;;;;34.10;18.90;;;;;;;7.00;78.52;101192.77;116655;1200;22371;-61
2021/10/05 06:15:30;;;;;;;26.90;17.90;;;;;;;7.03;78.46;101193.85;116662;1199;22271;-61
2021/10/05 06:17:58;;;;;;;30.20;17.00;;;;;;;7.08;78.25;101194.63;116557;1200;138033;-61
2021/10/05 06:20:27;;;;;;;26.50;19.40;;;;;;;7.11;78.21;101193.36;116645;1200;22318;-61
2021/10/05 06:22:55;;;;;;;29.70;17.60;;;;;;;7.18;78.18;101192.67;116569;1200;138493;-61
2021/10/05 06:25:26;;;;;;;30.00;18.10;;;;;;;7.24;78.24;101195.64;116748;1200;22319;-61
2021/10/05 06:27:56;;;;;;;28.00;17.20;;;;;;;7.32;78.18;101197.23;116556;1200;138064;-60
2021/10/05 06:30:25;;;;;;;28.70;18.70;;;;;;;7.36;77.79;101195.41;116674;1193;23373;-61
2021/10/05 06:32:53;;;;;;;32.20;18.40;;;;;;;7.39;77.69;101200.20;116727;1199;22997;-61
2021/10/05 06:35:24;;;;;;;26.80;18.10;;;;;;;7.40;77.49;101198.83;116518;1200;138138;-62
2021/10/05 06:37:54;;;;;;;29.60;18.20;;;;;;;7.44;77.65;101201.66;116673;1199;22378;-61
2021/10/05 06:40:24;;;;;;;24.70;17.90;;;;;;;7.53;77.71;101197.22;116545;1199;139252;-61
2021/10/05 06:42:52;;;;;;;32.40;18.50;;;;;;;7.62;77.60;101200.71;116684;1200;23630;-60
2021/10/05 06:45:21;;;;;;;30.90;18.10;;;;;;;7.72;77.32;101197.27;116682;1199;22348;-61
2021/10/05 06:47:49;;;;;;;27.60;16.40;;;;;;;7.79;77.03;101196.73;116499;1200;139149;-61
2021/10/05 06:50:17;;;;;;;27.50;18.20;;;;;;;7.87;77.10;101199.50;116583;1201;23027;-62
2021/10/05 06:52:46;;;;;;;30.80;17.50;;;;;;;7.98;76.85;101202.36;116508;1201;138059;-62
2021/10/05 06:55:14;;;;;;;25.70;16.80;;;;;;;8.06;76.38;101203.29;116488;1193;30122;-61
2021/10/05 06:57:42;;;;;;;33.30;17.20;;;;;;;8.12;76.29;101202.73;112339;1200;22633;-62
2021/10/05 07:00:15;;;;;;;24.10;16.70;;;;;;;8.19;76.20;101206.08;116382;1201;139302;-61
2021/10/05 07:02:45;;;;;;;29.20;17.70;;;;;;;8.29;76.04;101201.91;116582;1201;22353;-61
2021/10/05 07:05:14;;;;;;;35.20;18.00;;;;;;;8.37;75.61;101205.27;116518;1201;137950;-62
2021/10/05 07:07:44;;;;;;;29.80;18.90;;;;;;;8.43;75.40;101207.88;116513;1201;22945;-61
2021/10/05 07:10:13;;;;;;;39.00;18.70;;;;;;;8.48;75.14;101213.23;116522;1201;138724;-60
2021/10/05 07:12:41;;;;;;;29.90;19.10;;;;;;;8.50;75.03;101208.50;116578;1201;23341;-61
2021/10/05 07:15:10;;;;;;;31.00;18.60;;;;;;;8.57;75.04;101212.40;116531;1200;22466;-61
2021/10/05 07:17:38;;;;;;;27.50;18.40;;;;;;;8.63;75.03;101216.24;116535;1201;138006;-61
2021/10/05 07:20:06;;;;;;;28.80;17.70;;;;;;;8.71;74.73;101214.66;116593;1200;24546;-61
2021/10/05 07:22:34;;;;;;;30.00;17.30;;;;;;;8.78;74.77;101217.34;116504;1201;138305;-61
2021/10/05 07:25:03;;;;;;;30.40;16.60;;;;;;;8.87;74.60;101218.48;116619;1200;22373;-60
2021/10/05 07:27:45;;;;;;;33.50;18.30;;;;;;;8.97;74.61;101218.71;112431;1201;22441;-61
2021/10/05 07:30:14;;;;;;;31.20;17.60;;;;;;;9.04;73.70;101218.27;116479;1201;138191;-61
2021/10/05 07:32:42;;;;;;;26.90;18.70;;;;;;;9.11;73.78;101221.59;116597;1200;22902;-61
2021/10/05 07:35:11;;;;;;;25.20;17.30;;;;;;;9.16;73.44;101221.72;116537;1201;137998;-62
2021/10/05 07:37:39;;;;;;;26.50;18.30;;;;;;;9.22;73.55;101227.63;116528;1201;22312;-61
2021/10/05 07:40:07;;;;;;;27.10;17.10;;;;;;;9.31;73.21;101231.48;116458;1201;138359;-61
2021/10/05 07:42:35;;;;;;;27.30;17.60;;;;;;;9.37;72.90;101231.66;116659;1201;22254;-62
2021/10/05 07:45:04;;;;;;;26.70;17.40;;;;;;;9.43;72.66;101235.47;116577;1193;22313;-62
2021/10/05 07:47:32;;;;;;;33.80;17.90;;;;;;;9.48;72.50;101232.17;116453;1201;138399;-61
2021/10/05 07:50:00;;;;;;;25.60;16.80;;;;;;;9.55;72.24;101239.91;116606;1200;23140;-61
2021/10/05 07:52:28;;;;;;;29.70;19.20;;;;;;;9.63;72.10;101233.84;116503;1201;138523;-61
2021/10/05 07:54:56;;;;;;;27.10;16.80;;;;;;;9.70;71.93;101231.60;116712;1200;22404;-61
2021/10/05 07:57:24;;;;;;;28.00;18.30;;;;;;;9.75;71.79;101229.77;116643;1193;22280;-61
2021/10/05 07:59:52;;;;;;;28.70;17.90;;;;;;;9.84;71.68;101233.48;116552;1199;137954;-61
2021/10/05 08:02:20;;;;;;;27.10;18.80;;;;;;;9.92;71.31;101227.61;116708;1199;22453;-61
2021/10/05 08:04:49;;;;;;;26.90;17.10;;;;;;;10.00;70.84;101228.93;116552;1199;138499;-61
2021/10/05 08:07:17;;;;;;;27.90;18.00;;;;;;;10.06;70.65;101223.91;116632;1200;23178;-61
2021/10/05 08:09:45;;;;;;;35.00;17.50;;;;;;;10.15;70.86;101232.97;116713;1200;22387;-62
2021/10/05 08:12:13;;;;;;;28.10;17.20;;;;;;;10.25;70.42;101232.14;116627;1200;138186;-62
2021/10/05 08:14:41;;;;;;;29.30;16.40;;;;;;;10.32;69.75;101231.15;116754;1200;22330;-61
2021/10/05 08:17:09;;;;;;;25.30;18.00;;;;;;;10.38;70.00;101231.59;116571;1200;138654;-61
2021/10/05 08:19:38;;;;;;;25.60;16.60;;;;;;;10.48;69.99;101227.58;116666;1200;22335;-62
2021/10/05 08:22:07;;;;;;;27.90;18.30;;;;;;;10.60;69.97;101234.44;116623;1199;138702;-61
2021/10/05 08:24:35;;;;;;;25.80;17.60;;;;;;;10.73;69.81;101233.37;116606;1200;22253;-61
2021/10/05 08:27:05;;;;;;;26.60;17.50;;;;;;;10.83;69.42;101231.85;116761;1199;22268;-63
2021/10/05 08:29:34;;;;;;;29.40;18.80;;;;;;;10.90;68.78;101232.66;116576;1199;137668;-62
2021/10/05 08:32:03;;;;;;;24.80;17.50;;;;;;;10.96;68.25;101227.84;116647;1199;22245;-62
2021/10/05 08:34:32;;;;;;;29.70;17.80;;;;;;;11.01;68.41;101227.34;116573;1200;139706;-62
2021/10/05 08:37:00;;;;;;;30.50;19.80;;;;;;;11.05;67.81;101224.60;116678;1200;22526;-62
2021/10/05 08:39:28;;;;;;;30.90;18.50;;;;;;;11.09;67.98;101228.77;116763;1199;22327;-62
2021/10/05 08:41:56;;;;;;;34.20;19.00;;;;;;;11.13;68.05;101226.20;116621;1199;138904;-62
2021/10/05 08:44:25;;;;;;;26.70;17.80;;;;;;;11.20;68.07;101229.08;116672;1200;22293;-62
2021/10/05 08:46:55;;;;;;;30.30;18.00;;;;;;;11.28;67.79;101224.05;116553;1200;138402;-62
2021/10/05 08:49:23;;;;;;;25.40;17.20;;;;;;;11.35;67.28;101225.86;116657;1199;22191;-62
2021/10/05 08:51:52;;;;;;;22.00;15.60;;;;;;;11.42;67.50;101227.36;116717;1200;22384;-62
2021/10/05 08:54:20;;;;;;;24.10;16.50;;;;;;;11.50;67.42;101229.14;116652;1194;138490;-62
2021/10/05 08:56:48;;;;;;;27.60;16.00;;;;;;;11.59;67.01;101223.98;116703;1199;22325;-60
2021/10/05 08:59:16;;;;;;;27.10;18.00;;;;;;;11.69;66.55;101225.41;116531;1201;139103;-60
2021/10/05 09:01:47;;;;;;;30.90;16.60;;;;;;;11.78;66.35;101221.75;116745;1199;22284;-62
2021/10/05 09:04:16;;;;;;;25.30;16.10;;;;;;;11.87;65.83;101225.56;116550;1199;137649;-62
2021/10/05 09:06:51;;;;;;;28.10;17.50;;;;;;;11.94;65.66;101218.92;116645;1200;22307;-63
2021/10/05 09:09:19;;;;;;;30.60;18.10;;;;;;;12.00;64.86;101221.43;116724;1199;22315;-63
2021/10/05 09:11:51;;;;;;;25.50;16.80;;;;;;;12.01;64.70;101221.80;116645;1194;137672;-62
2021/10/05 09:14:20;;;;;;;33.30;17.20;;;;;;;12.03;65.06;101225.32;116756;1199;23219;-63
2021/10/05 09:16:48;;;;;;;32.20;19.70;;;;;;;12.07;64.86;101225.66;116587;1199;138549;-63
2021/10/05 09:19:17;;;;;;;27.70;16.30;;;;;;;12.12;64.70;101225.86;116691;1200;22338;-62
2021/10/05 09:21:50;;;;;;;19.70;14.60;;;;;;;12.18;64.77;101230.46;116728;1199;22273;-63
2021/10/05 09:24:21;;;;;;;22.10;15.10;;;;;;;12.26;64.10;101223.56;116629;1200;138571;-63
2021/10/05 09:26:52;;;;;;;28.20;16.00;;;;;;;12.35;63.58;101224.73;116730;1200;23394;-62
2021/10/05 09:29:28;;;;;;;30.30;17.40;;;;;;;12.41;63.50;101226.16;116625;1199;137451;-62
2021/10/05 09:32:12;;;;;;;21.00;16.10;;;;;;;12.50;63.66;101226.68;116668;1199;25556;-61
2021/10/05 09:34:54;;;;;;;25.00;17.60;;;;;;;12.58;63.14;101215.98;116602;1200;138014;-62
2021/10/05 09:37:30;;;;;;;23.90;15.80;;;;;;;12.63;62.85;101213.89;116630;1200;23183;-62
2021/10/05 09:40:05;;;;;;;27.20;17.20;;;;;;;12.68;62.88;101210.05;116695;1200;22318;-62
2021/10/05 09:42:41;;;;;;;26.20;15.10;;;;;;;12.75;62.42;101213.61;116554;1200;138319;-62
2021/10/05 09:45:16;;;;;;;28.20;13.80;;;;;;;12.78;62.04;101212.23;116740;1200;22444;-53
2021/10/05 09:47:49;;;;;;;24.60;16.10;;;;;;;12.82;61.45;101217.58;116496;1200;137682;-62
2021/10/05 09:50:24;;;;;;;20.50;14.00;;;;;;;12.85;61.23;101221.93;116680;1200;22305;-62
2021/10/05 09:52:58;;;;;;;34.80;19.30;;;;;;;12.88;61.05;101223.58;116587;1186;138429;-60
2021/10/05 09:55:32;;;;;;;30.20;17.10;;;;;;;12.91;61.08;101219.96;116710;1198;22857;-61
2021/10/05 09:58:00;;;;;;;23.70;15.80;;;;;;;12.96;61.06;101221.59;116485;1200;23329;-61
2021/10/05 10:00:31;;;;;;;26.30;16.60;;;;;;;12.99;60.28;101219.54;116653;1200;137800;-62
2021/10/05 10:03:00;;;;;;;31.00;15.70;;;;;;;13.02;60.18;101210.08;116757;1194;22343;-62
2021/10/05 10:05:30;;;;;;;20.10;14.20;;;;;;;13.06;59.69;101210.48;116497;1200;137969;-62
2021/10/05 10:07:59;;;;;;;23.50;15.00;;;;;;;13.14;59.26;101212.31;116765;1200;22360;-62
2021/10/05 10:10:32;;;;;;;21.40;13.00;;;;;;;13.22;59.19;101213.27;116638;1197;138935;-61
2021/10/05 10:13:01;;;;;;;27.20;16.40;;;;;;;13.31;58.72;101215.98;116729;1200;22243;-61
2021/10/05 10:15:31;;;;;;;17.70;12.70;;;;;;;13.40;57.40;101211.38;116110;1200;22486;-59
2021/10/05 10:18:09;;;;;;;17.90;11.40;;;;;;;13.47;56.95;101207.34;112428;1192;137585;-60
2021/10/05 10:20:41;;;;;;;21.50;12.00;;;;;;;13.55;56.93;101203.98;112478;1192;24743;-60
2021/10/05 10:23:25;;;;;;;12.30;10.50;;;;;;;13.66;55.92;101201.59;112305;1200;138308;-59
2021/10/05 10:26:07;;;;;;;25.20;13.60;;;;;;;13.76;55.35;101198.04;112346;1201;22612;-60
2021/10/05 10:28:39;;;;;;;20.90;11.00;;;;;;;13.82;54.69;101187.16;116556;1199;137670;-59
2021/10/05 10:31:11;;;;;;;15.90;10.30;;;;;;;13.84;54.25;101185.73;116744;1200;22133;-60
2021/10/05 10:33:46;;;;;;;16.30;8.60;;;;;;;13.88;52.83;101177.15;116750;1199;22271;-60
2021/10/05 10:36:16;;;;;;;32.90;19.50;;;;;;;13.87;52.92;101177.67;116594;1199;137955;-60
2021/10/05 10:38:45;;;;;;;34.30;18.60;;;;;;;13.83;53.72;101175.73;116687;1198;22326;-60
2021/10/05 10:41:16;;;;;;;34.10;21.50;;;;;;;13.80;53.13;101174.08;116500;1200;137689;-60
2021/10/05 10:44:00;;;;;;;23.30;14.20;;;;;;;13.80;52.72;101166.36;116641;1200;22488;-60
2021/10/05 10:46:31;;;;;;;15.90;10.20;;;;;;;13.77;53.26;101163.08;116667;1197;138363;-60
2021/10/05 10:49:01;;;;;;;13.90;9.50;;;;;;;13.76;53.96;101172.48;116687;1200;22318;-60
2021/10/05 10:51:32;;;;;;;28.70;8.60;;;;;;;13.80;53.48;101169.86;116734;1199;22213;-60
2021/10/05 10:54:11;;;;;;;12.80;8.70;;;;;;;13.88;52.21;101165.02;116429;1201;138380;-60
2021/10/05 10:56:40;;;;;;;16.80;9.90;;;;;;;13.96;51.86;101159.95;116654;1200;22295;-61
2021/10/05 10:59:09;;;;;;;12.50;8.60;;;;;;;14.00;52.06;101159.33;116622;1200;137336;-59
2021/10/05 11:01:40;;;;;;;13.80;9.00;;;;;;;14.03;51.78;101151.33;116714;1199;22263;-59
2021/10/05 11:04:09;;;;;;;17.10;10.40;;;;;;;14.05;52.03;101152.05;116688;1197;23259;-59
2021/10/05 11:06:38;;;;;;;9.30;6.90;;;;;;;14.08;52.42;101154.81;116645;1199;137298;-60
2021/10/05 11:09:06;;;;;;;10.50;7.00;;;;;;;14.13;51.89;101148.56;116736;1199;22307;-60
2021/10/05 11:11:35;;;;;;;11.50;7.10;;;;;;;14.16;51.77;101147.51;116641;1199;137347;-59
2021/10/05 11:14:05;;;;;;;13.60;8.10;;;;;;;14.21;51.63;101155.95;116723;1200;23164;-60
2021/10/05 11:16:35;;;;;;;14.30;8.10;;;;;;;14.25;51.24;101148.65;116500;1200;137583;-59